createdAt,value
2022-12-18T00:01:01.421Z,-3.84
2022-12-18T00:03:28.241Z,-3.85
2022-12-18T00:05:55.101Z,-3.86
2022-12-18T00:08:21.827Z,-3.89
2022-12-18T00:10:48.557Z,-3.86
2022-12-18T00:13:15.282Z,-3.79
2022-12-18T00:15:42.054Z,-3.75
2022-12-18T00:18:08.982Z,-3.74
2022-12-18T00:20:39.297Z,-3.73
2022-12-18T00:23:07.466Z,-3.73
2022-12-18T00:25:35.865Z,-3.73
2022-12-18T00:28:04.249Z,-3.78
2022-12-18T00:30:31.507Z,-3.80
2022-12-18T00:32:59.023Z,-3.79
2022-12-18T00:35:26.208Z,-3.77
2022-12-18T00:37:53.038Z,-3.74
2022-12-18T00:40:19.782Z,-3.71
2022-12-18T00:43:02.426Z,-3.68
2022-12-18T00:45:31.762Z,-3.60
2022-12-18T00:47:58.544Z,-3.57
2022-12-18T00:50:26.709Z,-3.57
2022-12-18T00:52:53.653Z,-3.64
2022-12-18T00:55:20.427Z,-3.73
2022-12-18T00:57:47.389Z,-3.76
2022-12-18T01:00:16.034Z,-3.79
2022-12-18T01:02:43.204Z,-3.83
2022-12-18T01:05:12.105Z,-3.89
2022-12-18T01:07:38.979Z,-3.94
2022-12-18T01:10:07.149Z,-3.96
2022-12-18T01:12:35.664Z,-3.98
2022-12-18T01:15:02.769Z,-3.98
2022-12-18T01:17:29.859Z,-3.95
2022-12-18T01:19:56.608Z,-3.92
2022-12-18T01:22:23.436Z,-3.91
2022-12-18T01:24:50.197Z,-3.92
2022-12-18T01:27:17.097Z,-3.94
2022-12-18T01:29:43.821Z,-3.97
2022-12-18T01:32:10.591Z,-4.00
2022-12-18T01:34:38.405Z,-4.00
2022-12-18T01:37:06.857Z,-4.01
2022-12-18T01:39:34.403Z,-4.03
2022-12-18T01:42:10.120Z,-4.04
2022-12-18T01:44:56.336Z,-4.03
2022-12-18T01:47:28.370Z,-3.99
2022-12-18T01:49:57.025Z,-3.96
2022-12-18T01:52:26.971Z,-3.95
2022-12-18T01:54:54.243Z,-3.91
2022-12-18T01:57:21.249Z,-3.87
2022-12-18T01:59:54.032Z,-3.83
2022-12-18T02:02:22.241Z,-3.81
2022-12-18T02:04:49.738Z,-3.84
2022-12-18T02:07:32.806Z,-3.86
2022-12-18T02:10:18.389Z,-3.88
2022-12-18T02:12:53.908Z,-3.93
2022-12-18T02:15:25.785Z,-3.97
2022-12-18T02:18:00.164Z,-3.98
2022-12-18T02:20:35.557Z,-3.97
2022-12-18T02:23:20.788Z,-3.95
2022-12-18T02:26:08.994Z,-3.98
2022-12-18T02:28:43.717Z,-4.02
2022-12-18T02:31:36.006Z,-4.04
2022-12-18T02:34:06.625Z,-4.07
2022-12-18T02:36:41.606Z,-4.12
2022-12-18T02:39:11.910Z,-4.16
2022-12-18T02:41:43.141Z,-4.22
2022-12-18T02:44:13.094Z,-4.23
2022-12-18T02:46:44.212Z,-4.25
2022-12-18T02:49:41.128Z,-4.21
2022-12-18T02:52:22.547Z,-4.17
2022-12-18T02:55:01.029Z,-4.18
2022-12-18T02:57:48.585Z,-4.17
2022-12-18T03:00:19.954Z,-4.20
2022-12-18T03:02:50.101Z,-4.21
2022-12-18T03:05:20.446Z,-4.22
2022-12-18T03:07:57.995Z,-4.25
2022-12-18T03:10:32.642Z,-4.28
2022-12-18T03:13:06.978Z,-4.29
2022-12-18T03:15:41.043Z,-4.28
2022-12-18T03:18:17.395Z,-4.25
2022-12-18T03:20:47.145Z,-4.23
2022-12-18T03:23:25.974Z,-4.23
2022-12-18T03:25:57.688Z,-4.25
2022-12-18T03:28:25.085Z,-4.25
2022-12-18T03:31:01.762Z,-4.27
2022-12-18T03:33:35.778Z,-4.30
2022-12-18T03:36:02.605Z,-4.34
2022-12-18T03:38:29.295Z,-4.36
2022-12-18T03:41:04.166Z,-4.37
2022-12-18T03:43:51.464Z,-4.35
2022-12-18T03:46:34.192Z,-4.31
2022-12-18T03:49:09.774Z,-4.27
2022-12-18T03:51:48.449Z,-4.26
2022-12-18T03:54:17.088Z,-4.23
2022-12-18T03:56:59.553Z,-4.25
2022-12-18T03:59:28.939Z,-4.27
2022-12-18T04:02:00.162Z,-4.29
2022-12-18T04:04:29.845Z,-4.29
2022-12-18T04:07:00.540Z,-4.27
2022-12-18T04:09:28.284Z,-4.24
2022-12-18T04:11:55.571Z,-4.23
2022-12-18T04:14:22.804Z,-4.21
2022-12-18T04:16:51.953Z,-4.19
2022-12-18T04:19:21.544Z,-4.19
2022-12-18T04:21:49.004Z,-4.19
2022-12-18T04:24:15.951Z,-4.21
2022-12-18T04:26:50.062Z,-4.24
2022-12-18T04:29:19.200Z,-4.26
2022-12-18T04:31:46.338Z,-4.28
2022-12-18T04:34:13.091Z,-4.25
2022-12-18T04:36:44.728Z,-4.24
2022-12-18T04:39:11.453Z,-4.23
2022-12-18T04:41:38.311Z,-4.23
2022-12-18T04:44:05.654Z,-4.25
2022-12-18T04:46:32.382Z,-4.26
2022-12-18T04:48:59.103Z,-4.29
2022-12-18T04:51:26.833Z,-4.30
2022-12-18T04:53:54.688Z,-4.29
2022-12-18T04:56:21.706Z,-4.28
2022-12-18T04:58:48.782Z,-4.27
2022-12-18T05:01:17.866Z,-4.27
2022-12-18T05:03:45.498Z,-4.25
2022-12-18T05:06:12.562Z,-4.26
2022-12-18T05:08:39.417Z,-4.27
2022-12-18T05:11:08.992Z,-4.29
2022-12-18T05:13:36.992Z,-4.31
2022-12-18T05:16:04.320Z,-4.34
2022-12-18T05:18:31.657Z,-4.34
2022-12-18T05:20:58.384Z,-4.31
2022-12-18T05:23:25.696Z,-4.28
2022-12-18T05:25:57.867Z,-4.25
2022-12-18T05:28:26.447Z,-4.23
2022-12-18T05:30:55.870Z,-4.23
2022-12-18T05:33:24.242Z,-4.23
2022-12-18T05:36:24.116Z,-4.27
2022-12-18T05:38:50.857Z,-4.29
2022-12-18T05:41:17.570Z,-4.35
2022-12-18T05:43:44.435Z,-4.37
2022-12-18T05:46:15.229Z,-4.37
2022-12-18T05:48:58.398Z,-4.36
2022-12-18T05:51:25.144Z,-4.36
2022-12-18T05:53:51.814Z,-4.36
2022-12-18T05:56:22.389Z,-4.37
2022-12-18T05:58:53.222Z,-4.38
2022-12-18T06:01:23.643Z,-4.37
2022-12-18T06:03:51.520Z,-4.38
2022-12-18T06:06:21.572Z,-4.39
2022-12-18T06:08:48.460Z,-4.41
2022-12-18T06:11:19.673Z,-4.41
2022-12-18T06:13:47.490Z,-4.42
2022-12-18T06:16:14.293Z,-4.39
2022-12-18T06:18:41.093Z,-4.36
2022-12-18T06:21:07.897Z,-4.36
2022-12-18T06:23:34.888Z,-4.35
2022-12-18T06:26:10.683Z,-4.33
2022-12-18T06:28:37.402Z,-4.38
2022-12-18T06:31:05.687Z,-4.43
2022-12-18T06:33:32.592Z,-4.46
2022-12-18T06:36:04.381Z,-4.51
2022-12-18T06:38:32.921Z,-4.51
2022-12-18T06:40:59.634Z,-4.50
2022-12-18T06:43:27.028Z,-4.47
2022-12-18T06:46:00.378Z,-4.43
2022-12-18T06:48:27.309Z,-4.43
2022-12-18T06:50:54.108Z,-4.38
2022-12-18T06:53:21.017Z,-4.36
2022-12-18T06:55:47.792Z,-4.34
2022-12-18T06:58:14.506Z,-4.34
2022-12-18T07:00:41.580Z,-4.37
2022-12-18T07:03:09.069Z,-4.43
2022-12-18T07:05:41.028Z,-4.46
2022-12-18T07:08:07.994Z,-4.46
2022-12-18T07:10:34.858Z,-4.44
2022-12-18T07:13:01.550Z,-4.43
2022-12-18T07:15:28.241Z,-4.39
2022-12-18T07:17:55.123Z,-4.36
2022-12-18T07:20:22.793Z,-4.33
2022-12-18T07:22:54.711Z,-4.31
2022-12-18T07:25:22.996Z,-4.29
2022-12-18T07:27:49.707Z,-4.29
2022-12-18T07:30:17.007Z,-4.31
2022-12-18T07:32:43.741Z,-4.30
2022-12-18T07:35:10.416Z,-4.28
2022-12-18T07:37:37.100Z,-4.31
2022-12-18T07:40:04.064Z,-4.33
2022-12-18T07:42:31.819Z,-4.36
2022-12-18T07:44:59.664Z,-4.32
2022-12-18T07:47:26.882Z,-4.26
2022-12-18T07:49:54.006Z,-4.17
2022-12-18T07:52:25.761Z,-4.20
2022-12-18T07:54:53.210Z,-4.22
2022-12-18T07:57:41.891Z,-4.17
2022-12-18T08:00:08.114Z,-4.12
2022-12-18T08:02:39.267Z,-4.09
2022-12-18T08:05:06.306Z,-4.13
2022-12-18T08:07:33.872Z,-4.25
2022-12-18T08:10:00.553Z,-4.29
2022-12-18T08:12:27.214Z,-4.20
2022-12-18T08:14:53.893Z,-4.06
2022-12-18T08:17:21.297Z,-4.01
2022-12-18T08:19:47.994Z,-4.02
2022-12-18T08:22:14.898Z,-4.08
2022-12-18T08:24:41.674Z,-4.08
2022-12-18T08:29:55.202Z,-3.91
2022-12-18T08:32:22.129Z,-3.73
2022-12-18T08:34:49.039Z,-3.52
2022-12-18T08:37:15.688Z,-3.34
2022-12-18T08:39:42.396Z,-3.19
2022-12-18T08:42:24.433Z,-3.06
2022-12-18T08:44:51.205Z,-2.87
2022-12-18T08:47:17.896Z,-2.71
2022-12-18T08:49:44.601Z,-2.55
2022-12-18T08:52:12.015Z,-2.40
2022-12-18T08:54:38.792Z,-2.24
2022-12-18T08:57:05.519Z,-2.04
2022-12-18T08:59:32.312Z,-1.87
2022-12-18T09:02:14.507Z,-1.74
2022-12-18T09:04:41.631Z,-1.67
2022-12-18T09:07:08.467Z,-1.62
2022-12-18T09:09:35.317Z,-1.54
2022-12-18T09:12:02.117Z,-1.45
2022-12-18T09:14:28.805Z,-1.32
2022-12-18T09:16:55.972Z,-1.23
2022-12-18T09:19:22.944Z,-1.21
2022-12-18T09:21:49.648Z,-1.16
2022-12-18T09:24:17.314Z,-1.14
2022-12-18T09:26:46.971Z,-1.09
2022-12-18T09:29:15.656Z,-0.99
2022-12-18T09:31:43.520Z,-0.85
2022-12-18T09:34:10.282Z,-0.65
2022-12-18T09:36:37.105Z,-0.50
2022-12-18T09:39:08.222Z,-0.39
2022-12-18T09:41:54.661Z,-0.29
2022-12-18T09:44:23.597Z,-0.20
2022-12-18T09:46:59.567Z,-0.09
2022-12-18T09:49:29.856Z,0.01
2022-12-18T09:52:01.258Z,0.09
2022-12-18T09:54:39.089Z,0.23
2022-12-18T09:57:05.937Z,0.40
2022-12-18T09:59:39.018Z,0.56
2022-12-18T10:02:22.675Z,0.68
2022-12-18T10:05:02.155Z,0.80
2022-12-18T10:07:43.132Z,0.88
2022-12-18T10:10:24.024Z,0.97
2022-12-18T10:13:05.197Z,1.15
2022-12-18T10:16:03.009Z,1.44
2022-12-18T10:19:00.687Z,1.66
2022-12-18T10:21:50.276Z,1.80
2022-12-18T10:24:39.617Z,1.88
2022-12-18T10:27:24.635Z,2.00
2022-12-18T10:29:51.566Z,1.91
2022-12-18T10:32:22.225Z,1.78
2022-12-18T10:34:55.350Z,1.70
2022-12-18T10:37:29.185Z,1.61
2022-12-18T10:40:21.506Z,1.59
2022-12-18T10:43:06.700Z,1.38
2022-12-18T10:45:33.552Z,1.15
2022-12-18T10:48:00.253Z,0.92
2022-12-18T10:51:01.731Z,0.77
2022-12-18T10:53:24.564Z,0.54
2022-12-18T10:55:56.167Z,0.33
2022-12-18T10:58:27.661Z,0.26
2022-12-18T11:01:12.836Z,0.18
2022-12-18T11:03:56.400Z,0.01
2022-12-18T11:06:26.817Z,-0.12
2022-12-18T11:09:24.304Z,-0.21
2022-12-18T11:11:54.452Z,-0.30
2022-12-18T11:14:25.221Z,-0.34
2022-12-18T11:19:42.190Z,-0.20
2022-12-18T11:22:27.632Z,-0.10
2022-12-18T11:25:30.653Z,0.04
2022-12-18T11:27:53.467Z,0.14
2022-12-18T11:30:21.188Z,0.23
2022-12-18T11:32:53.404Z,0.23
2022-12-18T11:35:31.539Z,0.31
2022-12-18T11:38:05.564Z,0.44
2022-12-18T11:40:41.233Z,0.40
2022-12-18T11:43:15.934Z,0.31
2022-12-18T11:45:50.617Z,0.26
2022-12-18T11:48:22.872Z,0.20
2022-12-18T11:50:54.497Z,0.09
2022-12-18T11:53:21.509Z,0.02
2022-12-18T11:56:12.669Z,0.01
2022-12-18T11:58:56.267Z,0.13
2022-12-18T12:01:46.012Z,0.43
2022-12-18T12:04:16.117Z,0.79
2022-12-18T12:06:52.776Z,1.41
2022-12-18T12:09:46.081Z,2.16
2022-12-18T12:12:17.174Z,2.93
2022-12-18T12:15:00.622Z,3.54
2022-12-18T12:17:48.467Z,4.05
2022-12-18T12:20:26.518Z,4.25
2022-12-18T12:22:59.630Z,4.42
2022-12-18T12:25:38.369Z,4.63
2022-12-18T12:28:17.443Z,4.82
2022-12-18T12:30:45.223Z,4.97
2022-12-18T12:33:27.406Z,5.35
2022-12-18T12:36:07.330Z,5.81
2022-12-18T12:38:46.828Z,6.15
2022-12-18T12:41:37.354Z,6.38
2022-12-18T12:44:08.863Z,6.56
2022-12-18T12:46:40.462Z,6.77
2022-12-18T12:49:15.775Z,6.95
2022-12-18T12:51:48.741Z,7.04
2022-12-18T12:54:22.392Z,7.05
2022-12-18T12:56:58.853Z,7.01
2022-12-18T12:59:43.239Z,6.94
2022-12-18T13:02:23.340Z,6.82
2022-12-18T13:04:58.061Z,6.82
2022-12-18T13:07:36.761Z,6.86
2022-12-18T13:10:23.765Z,6.86
2022-12-18T13:12:57.899Z,6.70
2022-12-18T13:15:44.753Z,6.49
2022-12-18T13:18:21.568Z,6.37
2022-12-18T13:20:55.304Z,6.28
2022-12-18T13:23:28.296Z,6.18
2022-12-18T13:25:57.813Z,5.89
2022-12-18T13:28:44.439Z,5.33
2022-12-18T13:31:11.204Z,4.64
2022-12-18T13:34:01.957Z,3.98
2022-12-18T13:36:31.781Z,3.34
2022-12-18T13:39:19.709Z,2.81
2022-12-18T13:41:53.177Z,2.20
2022-12-18T13:44:40.647Z,1.68
2022-12-18T13:47:39.094Z,1.14
2022-12-18T13:50:38.916Z,0.55
2022-12-18T13:53:06.393Z,-0.00
2022-12-18T13:55:33.275Z,-0.40
2022-12-18T13:58:07.558Z,-0.80
2022-12-18T14:00:34.644Z,-1.22
2022-12-18T14:03:02.101Z,-1.61
2022-12-18T14:05:32.517Z,-1.98
2022-12-18T14:08:06.422Z,-2.34
2022-12-18T14:10:48.657Z,-2.71
2022-12-18T14:13:28.962Z,-3.11
2022-12-18T14:15:57.328Z,-3.50
2022-12-18T14:19:06.083Z,-3.87
2022-12-18T14:21:47.444Z,-4.36
2022-12-18T14:24:16.801Z,-4.68
2022-12-18T14:26:48.377Z,-4.97
2022-12-18T14:29:22.405Z,-5.22
2022-12-18T14:32:09.363Z,-5.42
2022-12-18T14:34:38.824Z,-5.60
2022-12-18T14:37:06.185Z,-5.77
2022-12-18T14:39:32.918Z,-5.92
2022-12-18T14:41:59.931Z,-6.04
2022-12-18T14:44:34.581Z,-6.15
2022-12-18T14:47:05.914Z,-6.28
2022-12-18T14:49:35.154Z,-6.41
2022-12-18T14:52:05.868Z,-6.53
2022-12-18T14:54:37.999Z,-6.66
2022-12-18T14:57:18.521Z,-6.76
2022-12-18T14:59:45.315Z,-6.89
2022-12-18T15:02:23.009Z,-7.04
2022-12-18T15:05:02.771Z,-7.21
2022-12-18T15:07:42.616Z,-7.36
2022-12-18T15:10:21.056Z,-7.51
2022-12-18T15:12:48.813Z,-7.66
2022-12-18T15:15:34.563Z,-7.80
2022-12-18T15:18:02.914Z,-7.95
2022-12-18T15:20:33.582Z,-8.07
2022-12-18T15:23:00.449Z,-8.22
2022-12-18T15:25:35.468Z,-8.37
2022-12-18T15:28:02.309Z,-8.52
2022-12-18T15:30:29.335Z,-8.61
2022-12-18T15:33:27.723Z,-8.72
2022-12-18T15:36:09.731Z,-8.84
2022-12-18T15:38:36.690Z,-8.97
2022-12-18T15:41:04.104Z,-9.10
2022-12-18T15:43:39.268Z,-9.23
2022-12-18T15:46:12.866Z,-9.33
2022-12-18T15:48:43.785Z,-9.43
2022-12-18T15:51:18.348Z,-9.52
2022-12-18T15:53:46.302Z,-9.58
2022-12-18T15:56:30.389Z,-9.64
2022-12-18T15:58:57.666Z,-9.73
2022-12-18T16:01:28.078Z,-9.85
2022-12-18T16:03:55.817Z,-9.95
2022-12-18T16:06:23.637Z,-10.04
2022-12-18T16:08:50.797Z,-10.14
2022-12-18T16:11:38.957Z,-10.26
2022-12-18T16:14:06.068Z,-10.31
2022-12-18T16:16:33.647Z,-10.38
2022-12-18T16:19:00.331Z,-10.45
2022-12-18T16:21:33.781Z,-10.52
2022-12-18T16:24:01.153Z,-10.60
2022-12-18T16:26:27.843Z,-10.70
2022-12-18T16:28:54.772Z,-10.79
2022-12-18T16:31:21.979Z,-10.86
2022-12-18T16:33:49.221Z,-10.93
2022-12-18T16:36:16.051Z,-11.00
2022-12-18T16:38:43.004Z,-11.07
2022-12-18T16:41:35.284Z,-11.17
2022-12-18T16:44:02.714Z,-11.27
2022-12-18T16:46:30.433Z,-11.36
2022-12-18T16:48:59.799Z,-11.45
2022-12-18T16:51:28.006Z,-11.54
2022-12-18T16:53:56.201Z,-11.62
2022-12-18T16:56:38.592Z,-11.71
2022-12-18T16:59:06.047Z,-11.79
2022-12-18T17:01:33.572Z,-11.87
2022-12-18T17:04:02.801Z,-11.93
2022-12-18T17:06:31.904Z,-12.03
2022-12-18T17:09:00.398Z,-12.08
2022-12-18T17:11:29.155Z,-12.16
2022-12-18T17:13:57.209Z,-12.20
2022-12-18T17:16:25.771Z,-12.24
2022-12-18T17:19:25.124Z,-12.30
2022-12-18T17:21:53.006Z,-12.36
2022-12-18T17:24:20.695Z,-12.42
2022-12-18T17:26:48.551Z,-12.44
2022-12-18T17:29:19.943Z,-12.45
2022-12-18T17:31:48.125Z,-12.49
2022-12-18T17:34:15.677Z,-12.54
2022-12-18T17:36:42.572Z,-12.59
2022-12-18T17:39:18.011Z,-12.62
2022-12-18T17:41:44.982Z,-12.63
2022-12-18T17:44:11.934Z,-12.63
2022-12-18T17:46:40.984Z,-12.59
2022-12-18T17:49:08.399Z,-12.57
2022-12-18T17:51:35.322Z,-12.58
2022-12-18T17:54:02.252Z,-12.60
2022-12-18T17:56:29.230Z,-12.64
2022-12-18T17:58:55.967Z,-12.69
2022-12-18T18:01:25.238Z,-12.77
2022-12-18T18:03:54.217Z,-12.82
2022-12-18T18:06:22.001Z,-12.86
2022-12-18T18:09:34.661Z,-12.92
2022-12-18T18:13:02.882Z,-13.03
2022-12-18T18:15:45.398Z,-13.11
2022-12-18T18:18:12.138Z,-13.16
2022-12-18T18:20:57.172Z,-13.24
2022-12-18T18:23:23.925Z,-13.34
2022-12-18T18:25:50.729Z,-13.40
2022-12-18T18:28:18.905Z,-13.44
2022-12-18T18:30:45.849Z,-13.53
2022-12-18T18:33:28.252Z,-13.56
2022-12-18T18:35:55.120Z,-13.60
2022-12-18T18:38:21.919Z,-13.62
2022-12-18T18:40:50.283Z,-13.65
2022-12-18T18:43:18.373Z,-13.68
2022-12-18T18:45:45.120Z,-13.75
2022-12-18T18:48:14.177Z,-13.81
2022-12-18T18:50:40.852Z,-13.82
2022-12-18T18:53:07.542Z,-13.81
2022-12-18T18:55:34.213Z,-13.85
2022-12-18T18:58:01.163Z,-13.91
2022-12-18T19:00:30.308Z,-13.93
2022-12-18T19:03:00.635Z,-13.98
2022-12-18T19:05:27.710Z,-14.00
2022-12-18T19:07:55.428Z,-14.04
2022-12-18T19:10:22.392Z,-14.04
2022-12-18T19:13:04.301Z,-14.03
2022-12-18T19:15:31.295Z,-14.02
2022-12-18T19:17:58.388Z,-14.00
2022-12-18T19:20:25.255Z,-14.00
2022-12-18T19:22:55.559Z,-13.99
2022-12-18T19:25:37.134Z,-14.00
2022-12-18T19:28:06.759Z,-14.03
2022-12-18T19:30:39.222Z,-14.07
2022-12-18T19:33:34.092Z,-14.13
2022-12-18T19:35:53.214Z,-14.18
2022-12-18T19:38:20.060Z,-14.23
2022-12-18T19:40:46.882Z,-14.24
2022-12-18T19:43:14.609Z,-14.32
2022-12-18T19:45:41.710Z,-14.38
2022-12-18T19:48:09.277Z,-14.40
2022-12-18T19:50:41.937Z,-14.41
2022-12-18T19:53:08.811Z,-14.46
2022-12-18T19:55:44.653Z,-14.50
2022-12-18T19:58:12.469Z,-14.51
2022-12-18T20:00:39.378Z,-14.53
2022-12-18T20:03:17.262Z,-14.55
2022-12-18T20:05:48.476Z,-14.59
2022-12-18T20:08:15.292Z,-14.63
2022-12-18T20:10:44.822Z,-14.67
2022-12-18T20:13:12.178Z,-14.72
2022-12-18T20:15:45.283Z,-14.72
2022-12-18T20:18:12.398Z,-14.71
2022-12-18T20:20:39.154Z,-14.67
2022-12-18T20:23:07.170Z,-14.62
2022-12-18T20:25:34.022Z,-14.57
2022-12-18T20:28:00.767Z,-14.54
2022-12-18T20:30:28.182Z,-14.51
2022-12-18T20:32:54.862Z,-14.50
2022-12-18T20:35:21.753Z,-14.47
2022-12-18T20:37:49.818Z,-14.41
2022-12-18T20:40:17.664Z,-14.38
2022-12-18T20:42:44.341Z,-14.38
2022-12-18T20:45:11.161Z,-14.37
2022-12-18T20:47:37.875Z,-14.37
2022-12-18T20:50:05.859Z,-14.36
2022-12-18T20:52:33.085Z,-14.36
2022-12-18T20:54:59.970Z,-14.41
2022-12-18T20:57:28.051Z,-14.48
2022-12-18T20:59:54.772Z,-14.51
2022-12-18T21:02:21.614Z,-14.53
2022-12-18T21:04:48.665Z,-14.53
2022-12-18T21:07:15.457Z,-14.55
2022-12-18T21:09:42.235Z,-14.53
2022-12-18T21:12:28.334Z,-14.49
2022-12-18T21:14:56.126Z,-14.46
2022-12-18T21:17:22.850Z,-14.48
2022-12-18T21:19:49.576Z,-14.47
2022-12-18T21:22:17.004Z,-14.45
2022-12-18T21:24:44.015Z,-14.43
2022-12-18T21:27:10.824Z,-14.41
2022-12-18T21:29:41.198Z,-14.39
2022-12-18T21:32:09.415Z,-14.40
2022-12-18T21:34:36.741Z,-14.44
2022-12-18T21:37:04.421Z,-14.46
2022-12-18T21:39:31.993Z,-14.53
2022-12-18T21:42:15.234Z,-14.62
2022-12-18T21:44:42.727Z,-14.65
2022-12-18T21:47:21.892Z,-14.68
2022-12-18T21:49:49.591Z,-14.71
2022-12-18T21:52:17.274Z,-14.75
2022-12-18T21:54:43.943Z,-14.78
2022-12-18T21:57:11.082Z,-14.83
2022-12-18T21:59:40.339Z,-14.92
2022-12-18T22:02:14.349Z,-15.00
2022-12-18T22:04:42.542Z,-15.09
2022-12-18T22:07:10.454Z,-15.15
2022-12-18T22:09:38.178Z,-15.18
2022-12-18T22:12:06.419Z,-15.18
2022-12-18T22:14:33.132Z,-15.20
2022-12-18T22:17:00.108Z,-15.20
2022-12-18T22:19:28.156Z,-15.21
2022-12-18T22:21:55.491Z,-15.20
2022-12-18T22:24:24.693Z,-15.13
2022-12-18T22:26:57.305Z,-15.09
2022-12-18T22:29:44.382Z,-15.04
2022-12-18T22:32:15.812Z,-14.99
2022-12-18T22:34:43.819Z,-14.94
2022-12-18T22:37:11.941Z,-14.92
2022-12-18T22:39:38.764Z,-14.95
2022-12-18T22:42:05.983Z,-14.96
2022-12-18T22:44:32.708Z,-14.95
2022-12-18T22:47:06.928Z,-14.96
2022-12-18T22:49:35.801Z,-14.96
2022-12-18T22:52:04.413Z,-14.94
2022-12-18T22:54:31.206Z,-14.92
2022-12-18T22:56:58.019Z,-14.92
2022-12-18T22:59:25.798Z,-14.94
2022-12-18T23:01:54.908Z,-14.95
2022-12-18T23:04:31.284Z,-14.96
2022-12-18T23:07:03.121Z,-14.92
2022-12-18T23:09:29.820Z,-14.89
2022-12-18T23:11:56.507Z,-14.84
2022-12-18T23:14:23.278Z,-14.84
2022-12-18T23:16:49.954Z,-14.87
2022-12-18T23:19:18.996Z,-14.86
2022-12-18T23:21:45.724Z,-14.86
2022-12-18T23:24:13.162Z,-14.84
2022-12-18T23:26:39.850Z,-14.83
2022-12-18T23:29:07.162Z,-14.84
2022-12-18T23:31:36.216Z,-14.85
2022-12-18T23:34:04.586Z,-14.83
2022-12-18T23:36:41.842Z,-14.80
2022-12-18T23:39:15.449Z,-14.75
2022-12-18T23:41:49.438Z,-14.75
2022-12-18T23:44:16.149Z,-14.73
2022-12-18T23:46:42.887Z,-14.69
2022-12-18T23:49:09.673Z,-14.67
2022-12-18T23:51:36.623Z,-14.66
2022-12-18T23:54:05.097Z,-14.69
2022-12-18T23:56:31.955Z,-14.67
2022-12-18T23:58:58.640Z,-14.67
